Courtenay, Canada
Current Conditions -  °F | °C
As of 8:00 AM on Monday 24 Nov 2014 (Local Time) from CYQQ Reporting Station
Light Rain Light Rain  
Wind Chill: 39°   Ceiling: 1100
Heat Index: 46°   Visibility: 20mi
Dew Point: 45°   Wind: 18mph
Humidity: 93%   Direction: 150°SSE
Pressure: 30.21"   Gusts: 28mph
Location:  49.69°N, 124.99°W
Report Text: CYQQ 241600Z 15016G24KT 20SM -RA BKN011 OVC042 08/07 A3021 RMK SF5SC3 SLP231
Loading
Personal Weather Stations






























Interactive Weather Map New forecast layout! Learn more

10-Day Weather Forecast

Advertisements
Track Severe Weather on mobile